Temir, Kazakhstan
Current Conditions -  °F | °C
As of 1:30 PM on Thursday 27 Nov 2014 (Local Time) from UATT Reporting Station
Clear Clear  
Wind Chill: 19°   Ceiling: Unl
Heat Index: 19°   Visibility: 6mi
Dew Point:   Wind: 2mph
Humidity: 54%   Direction: NA
Pressure: 30.42"   Gusts: NA
Location:  49.14°N, 57.13°E
Report Text: UATT 270830Z VRB01MPS CAVOK M07/M15 Q1030 R31/0///60 NOSIG RMKQFE752/1003
Loading
Personal Weather Stations






























Interactive Weather Map New forecast layout! Learn more

10-Day Weather Forecast

Advertisements
Track Severe Weather on mobile